Time;durP1;ratioP1;P1;durP2;ratioP2;P2;SDS_P1;SDS_P2;PMS_P1;PMS_P2;Temp;Humidity;BMP_temperature;BMP_pressure;BME280_temperature;BME280_humidity;BME280_pressure;Samples;Min_cycle;Max_cycle;Signal;HPM_P1;HPM_P2
2021/11/07 00:00:35;;;;;;;9.15;6.45;;;8.80;99.90;;;;;;5053061;28;20029;-37
2021/11/07 00:03:08;;;;;;;9.07;5.97;;;8.80;99.90;;;;;;5053056;28;20095;-38
2021/11/07 00:05:40;;;;;;;7.82;5.35;;;8.80;99.90;;;;;;5053225;28;20017;-37
2021/11/07 00:10:47;;;;;;;9.75;6.45;;;8.80;99.90;;;;;;5052986;28;20025;-38
2021/11/07 00:15:42;;;;;;;9.02;5.07;;;8.80;99.90;;;;;;5052752;28;20180;-38
2021/11/07 00:18:11;;;;;;;11.35;7.30;;;8.80;99.90;;;;;;5052781;28;20017;-38
2021/11/07 00:20:43;;;;;;;8.55;5.97;;;8.80;99.90;;;;;;5052887;28;20198;-38
2021/11/07 00:23:22;;;;;;;8.45;5.90;;;8.80;99.90;;;;;;5052805;28;20059;-38
2021/11/07 00:25:52;;;;;;;8.32;5.43;;;8.70;99.90;;;;;;5052854;28;20025;-38
2021/11/07 00:31:16;;;;;;;10.80;6.88;;;8.70;99.90;;;;;;5052337;28;20060;-38
2021/11/07 00:36:20;;;;;;;9.25;6.57;;;8.70;99.90;;;;;;5052441;28;20032;-38
2021/11/07 00:38:55;;;;;;;10.02;6.63;;;8.70;99.90;;;;;;5052543;28;20408;-38
2021/11/07 00:41:45;;;;;;;10.88;6.57;;;8.70;99.90;;;;;;5051155;28;20056;-38
2021/11/07 00:44:17;;;;;;;10.50;5.82;;;8.70;99.90;;;;;;5050968;28;20028;-40
2021/11/07 00:46:47;;;;;;;9.10;5.93;;;8.50;99.90;;;;;;5052385;28;20032;-38
2021/11/07 00:49:20;;;;;;;10.68;6.85;;;8.50;99.90;;;;;;5052231;28;20298;-38
2021/11/07 00:52:02;;;;;;;10.02;6.90;;;8.50;99.90;;;;;;5051108;28;20029;-38
2021/11/07 00:54:38;;;;;;;10.95;6.18;;;8.50;99.90;;;;;;5052464;28;20040;-38
2021/11/07 00:57:16;;;;;;;;;;;8.50;99.90;;;;;;5053445;28;20021;-38
2021/11/07 01:00:03;;;;;;;9.70;5.78;;;8.40;99.90;;;;;;5050787;28;19909;-38
2021/11/07 01:02:33;;;;;;;10.65;5.63;;;8.40;99.90;;;;;;5057780;28;20030;-38
2021/11/07 01:05:00;;;;;;;7.25;5.53;;;8.40;99.90;;;;;;5073718;28;20029;-38
2021/11/07 01:07:27;;;;;;;9.50;5.68;;;8.40;99.90;;;;;;5073526;28;20104;-38
2021/11/07 01:09:54;;;;;;;9.18;6.80;;;8.40;99.90;;;;;;5073455;28;20039;-38
2021/11/07 01:12:21;;;;;;;8.50;5.35;;;8.40;99.90;;;;;;5073340;28;20463;-38
2021/11/07 01:14:49;;;;;;;8.65;5.45;;;8.40;99.90;;;;;;5072225;28;20460;-38
2021/11/07 01:17:14;;;;;;;9.00;5.38;;;8.30;99.90;;;;;;5073397;28;20028;-38
2021/11/07 01:19:42;;;;;;;6.65;4.40;;;8.30;99.90;;;;;;5073465;28;20422;-38
2021/11/07 01:22:11;;;;;;;8.57;6.00;;;8.20;99.90;;;;;;5073420;28;20037;-38
2021/11/07 01:24:40;;;;;;;6.88;4.55;;;8.20;99.90;;;;;;5065217;28;20154;-38
2021/11/07 01:27:18;;;;;;;7.47;5.18;;;8.00;99.90;;;;;;5053303;28;20059;-38
2021/11/07 01:29:51;;;;;;;8.80;5.53;;;8.00;99.90;;;;;;5052052;28;20025;-37
2021/11/07 01:32:19;;;;;;;8.00;4.70;;;7.90;99.90;;;;;;5051591;28;20451;-38
2021/11/07 01:34:55;;;;;;;8.02;5.10;;;7.80;99.90;;;;;;5052859;28;20029;-38
2021/11/07 01:37:23;;;;;;;7.18;5.10;;;7.70;99.90;;;;;;5053063;28;20391;-38
2021/11/07 01:39:56;;;;;;;8.68;5.43;;;7.70;99.90;;;;;;5053063;28;20530;-40
2021/11/07 01:42:33;;;;;;;7.82;5.55;;;7.70;99.90;;;;;;5052942;28;20074;-38
2021/11/07 01:45:05;;;;;;;7.05;5.00;;;7.60;99.90;;;;;;5051681;28;20037;-38
2021/11/07 01:47:36;;;;;;;10.90;6.28;;;7.60;99.90;;;;;;5052742;28;20082;-38
2021/11/07 01:50:03;;;;;;;11.18;5.22;;;7.60;99.90;;;;;;5052947;28;20048;-37
2021/11/07 01:52:29;;;;;;;6.63;4.50;;;7.60;99.90;;;;;;5052510;28;20028;-38
2021/11/07 01:55:03;;;;;;;10.98;5.78;;;7.60;99.90;;;;;;5052892;28;20031;-38
2021/11/07 01:57:30;;;;;;;7.82;5.45;;;7.60;99.90;;;;;;5052700;28;20025;-38
2021/11/07 01:59:58;;;;;;;9.93;5.68;;;7.60;99.90;;;;;;5051345;28;20045;-38
2021/11/07 02:02:28;;;;;;;7.68;5.50;;;7.60;99.90;;;;;;5052613;28;20021;-38
2021/11/07 02:04:54;;;;;;;6.68;5.15;;;7.60;99.90;;;;;;5052741;28;20357;-38
2021/11/07 02:07:20;;;;;;;11.73;5.65;;;7.60;99.90;;;;;;5052515;28;20104;-38
2021/11/07 02:09:46;;;;;;;8.05;4.68;;;7.70;99.90;;;;;;5052661;28;20104;-41
2021/11/07 02:12:12;;;;;;;7.97;4.97;;;7.70;99.90;;;;;;5052522;28;20033;-38
2021/11/07 02:14:40;;;;;;;11.23;5.97;;;7.70;99.90;;;;;;5051013;28;20099;-38
2021/11/07 02:17:06;;;;;;;8.57;4.78;;;7.70;99.90;;;;;;5052602;28;20353;-38
2021/11/07 02:19:32;;;;;;;9.27;5.50;;;7.80;99.90;;;;;;5052275;28;20128;-38
2021/11/07 02:21:58;;;;;;;5.97;4.07;;;7.80;99.90;;;;;;5052564;28;20512;-38
2021/11/07 02:24:23;;;;;;;8.82;5.30;;;7.90;99.90;;;;;;5052384;28;20024;-38
2021/11/07 02:26:55;;;;;;;7.93;5.47;;;7.90;99.90;;;;;;5052476;28;20068;-38
2021/11/07 02:29:22;;;;;;;7.30;5.05;;;7.90;99.90;;;;;;5051029;28;20025;-38
2021/11/07 02:31:50;;;;;;;7.82;5.43;;;8.00;99.90;;;;;;5052154;28;20044;-38
2021/11/07 02:34:16;;;;;;;7.40;5.00;;;8.00;99.90;;;;;;5052384;28;20105;-38
2021/11/07 02:36:43;;;;;;;6.72;5.03;;;8.10;99.90;;;;;;5052359;28;20082;-38
2021/11/07 02:39:10;;;;;;;8.07;5.60;;;8.10;99.90;;;;;;5052348;28;20035;-38
2021/11/07 02:41:36;;;;;;;9.15;5.13;;;8.20;99.90;;;;;;5052115;28;20029;-37
2021/11/07 02:44:02;;;;;;;7.85;5.15;;;8.20;99.90;;;;;;5051003;28;20036;-38
2021/11/07 02:46:27;;;;;;;9.18;5.88;;;8.20;99.90;;;;;;5052232;28;20447;-38
2021/11/07 02:48:56;;;;;;;6.38;4.82;;;8.20;99.90;;;;;;5052265;28;20094;-37
2021/11/07 02:51:28;;;;;;;6.25;4.63;;;8.20;99.90;;;;;;5052002;28;20079;-37
2021/11/07 02:53:54;;;;;;;5.95;4.60;;;8.30;99.90;;;;;;5052236;28;20035;-38
2021/11/07 02:56:20;;;;;;;7.53;4.20;;;8.30;99.90;;;;;;5052035;28;20025;-38
2021/11/07 02:58:46;;;;;;;5.97;4.05;;;8.30;99.90;;;;;;5050843;28;20021;-37
2021/11/07 03:01:13;;;;;;;6.93;4.10;;;8.30;99.90;;;;;;5052177;28;20036;-37
2021/11/07 03:03:39;;;;;;;12.90;5.03;;;8.30;99.90;;;;;;5052488;28;20533;-38
2021/11/07 03:06:04;;;;;;;9.02;5.60;;;8.30;99.90;;;;;;5056035;28;20033;-38
2021/11/07 03:08:30;;;;;;;8.50;4.68;;;8.20;99.90;;;;;;5055912;28;20029;-37
2021/11/07 03:10:58;;;;;;;9.18;4.68;;;8.20;99.90;;;;;;5055651;28;20468;-38
2021/11/07 03:13:23;;;;;;;4.82;3.67;;;8.30;99.90;;;;;;5054633;28;20013;-38
2021/11/07 03:15:49;;;;;;;7.82;4.57;;;8.30;99.90;;;;;;5055739;28;20028;-37
2021/11/07 03:18:15;;;;;;;5.63;3.63;;;8.30;99.90;;;;;;5055822;28;20029;-38
2021/11/07 03:20:40;;;;;;;4.50;3.25;;;8.30;99.90;;;;;;5055623;28;20488;-37
2021/11/07 03:23:07;;;;;;;6.22;4.13;;;8.40;99.90;;;;;;5055684;28;20143;-37
2021/11/07 03:25:34;;;;;;;8.35;4.00;;;8.30;99.90;;;;;;5055386;28;20401;-41
2021/11/07 03:27:59;;;;;;;5.32;3.88;;;8.40;99.90;;;;;;5054264;28;20125;-38
2021/11/07 03:30:40;;;;;;;8.95;4.47;;;8.50;99.90;;;;;;5055460;28;20025;-39
2021/11/07 03:33:20;;;;;;;6.32;4.07;;;8.50;99.90;;;;;;5055321;28;20492;-38
2021/11/07 03:35:46;;;;;;;8.02;4.82;;;8.50;99.90;;;;;;5055186;28;20033;-38
2021/11/07 03:38:13;;;;;;;6.97;4.78;;;8.50;99.90;;;;;;5055329;28;20017;-37
2021/11/07 03:40:39;;;;;;;7.15;4.95;;;8.50;99.90;;;;;;5055202;28;20025;-38
2021/11/07 03:43:05;;;;;;;6.10;4.35;;;8.50;99.90;;;;;;5054002;28;20028;-38
2021/11/07 03:45:30;;;;;;;7.43;4.30;;;8.50;99.90;;;;;;5055130;28;20096;-38
2021/11/07 03:47:56;;;;;;;8.50;4.68;;;8.50;99.90;;;;;;5055245;28;20053;-37
2021/11/07 03:50:25;;;;;;;9.50;4.15;;;8.50;99.90;;;;;;5055135;28;20032;-38
2021/11/07 03:52:51;;;;;;;8.70;4.80;;;8.50;99.90;;;;;;5055097;28;20075;-37
2021/11/07 03:55:16;;;;;;;6.78;4.47;;;8.50;99.90;;;;;;5055122;28;20025;-37
2021/11/07 03:57:42;;;;;;;5.90;4.13;;;8.50;99.90;;;;;;5053657;28;20028;-38
2021/11/07 04:00:14;;;;;;;7.53;4.07;;;8.50;99.90;;;;;;5055005;28;20361;-38
2021/11/07 04:02:39;;;;;;;6.28;3.88;;;8.50;99.90;;;;;;5054838;28;20029;-37
2021/11/07 04:05:07;;;;;;;6.53;4.30;;;8.50;99.90;;;;;;5054965;28;20036;-38
2021/11/07 04:07:33;;;;;;;6.40;4.43;;;8.50;99.90;;;;;;5054779;28;20071;-38
2021/11/07 04:09:59;;;;;;;7.32;4.05;;;8.40;99.90;;;;;;5054776;28;20029;-37
2021/11/07 04:12:25;;;;;;;5.40;4.28;;;8.50;99.90;;;;;;5054910;28;20309;-37
2021/11/07 04:14:50;;;;;;;6.70;3.63;;;8.50;99.90;;;;;;5053285;28;20029;-38
2021/11/07 04:17:16;;;;;;;7.13;4.25;;;8.50;99.90;;;;;;5054676;28;20017;-39
2021/11/07 04:19:42;;;;;;;6.75;4.40;;;8.50;99.90;;;;;;5054462;28;20036;-40
2021/11/07 04:22:10;;;;;;;6.85;4.28;;;8.40;99.90;;;;;;5054501;28;20027;-38
2021/11/07 04:24:36;;;;;;;8.73;3.92;;;8.50;99.90;;;;;;5054547;28;20033;-38
2021/11/07 04:27:02;;;;;;;7.93;4.60;;;8.50;99.90;;;;;;5054559;28;20032;-38
2021/11/07 04:29:28;;;;;;;10.43;4.18;;;8.50;99.90;;;;;;5053130;28;20033;-38
2021/11/07 04:31:54;;;;;;;6.57;3.83;;;8.50;99.90;;;;;;5052753;28;20049;-38
2021/11/07 04:34:21;;;;;;;6.70;4.25;;;8.50;99.90;;;;;;5054240;28;20035;-37
2021/11/07 04:36:46;;;;;;;5.38;3.83;;;8.50;99.90;;;;;;5054199;28;20025;-37
2021/11/07 04:39:12;;;;;;;6.22;4.15;;;8.50;99.90;;;;;;5054289;28;20033;-37
2021/11/07 04:41:38;;;;;;;6.72;4.43;;;8.50;99.90;;;;;;5054112;28;20431;-38
2021/11/07 04:44:04;;;;;;;6.93;4.40;;;8.50;99.90;;;;;;5052891;28;20546;-38
2021/11/07 04:46:29;;;;;;;5.40;4.30;;;8.50;99.90;;;;;;5054107;28;20051;-38
2021/11/07 04:48:55;;;;;;;5.90;3.92;;;8.40;99.90;;;;;;5054019;28;20028;-37
2021/11/07 04:51:21;;;;;;;7.32;4.15;;;8.40;99.90;;;;;;5053977;28;20037;-38
2021/11/07 04:53:46;;;;;;;7.28;4.20;;;8.40;99.90;;;;;;5053889;28;20384;-37
2021/11/07 04:56:13;;;;;;;6.72;4.13;;;8.40;99.90;;;;;;5053975;28;20491;-38
2021/11/07 04:58:40;;;;;;;6.55;4.80;;;8.30;99.90;;;;;;5052481;28;20029;-40
2021/11/07 05:01:06;;;;;;;5.65;3.92;;;8.30;99.90;;;;;;5053857;28;20021;-37
2021/11/07 05:03:32;;;;;;;6.63;4.88;;;8.30;99.90;;;;;;5053620;28;20040;-38
2021/11/07 05:05:58;;;;;;;8.07;4.90;;;8.30;99.90;;;;;;5053677;28;20028;-38
2021/11/07 05:08:24;;;;;;;7.28;4.57;;;8.30;99.90;;;;;;5053730;28;20078;-37
2021/11/07 05:10:50;;;;;;;8.48;4.70;;;8.30;99.90;;;;;;5053459;28;20025;-38
2021/11/07 05:13:16;;;;;;;8.07;4.45;;;8.30;99.90;;;;;;5052413;28;20017;-38
2021/11/07 05:15:42;;;;;;;6.55;4.10;;;8.30;99.90;;;;;;5053499;28;20104;-38
2021/11/07 05:18:08;;;;;;;6.03;4.22;;;8.30;99.90;;;;;;5053446;28;20448;-37
2021/11/07 05:20:33;;;;;;;7.70;4.65;;;8.30;99.90;;;;;;5053526;28;20476;-38
2021/11/07 05:22:59;;;;;;;7.93;5.25;;;8.30;99.90;;;;;;5053293;28;20100;-38
2021/11/07 05:25:24;;;;;;;8.48;5.07;;;8.20;99.90;;;;;;5053438;28;20036;-38
2021/11/07 05:27:50;;;;;;;7.30;3.75;;;8.30;99.90;;;;;;5051518;28;20035;-37
2021/11/07 05:30:18;;;;;;;6.78;4.00;;;8.30;99.90;;;;;;5053340;28;20025;-38
2021/11/07 05:32:45;;;;;;;7.10;3.90;;;8.30;99.90;;;;;;5052816;28;20091;-38
2021/11/07 05:35:13;;;;;;;7.78;4.60;;;8.30;99.90;;;;;;5053345;28;20021;-37
2021/11/07 05:37:39;;;;;;;6.57;4.45;;;8.20;99.90;;;;;;5052877;28;20358;-38
2021/11/07 05:40:08;;;;;;;6.13;4.00;;;8.20;99.90;;;;;;5053069;28;20075;-37
2021/11/07 05:42:34;;;;;;;7.72;4.25;;;8.20;99.90;;;;;;5052442;28;20522;-38
2021/11/07 05:45:00;;;;;;;7.43;4.32;;;8.20;99.90;;;;;;5052500;28;20064;-38
2021/11/07 05:47:27;;;;;;;8.10;4.50;;;8.20;99.90;;;;;;5052852;28;20415;-38
2021/11/07 05:49:52;;;;;;;6.28;4.18;;;8.20;99.90;;;;;;5052819;28;20033;-37
2021/11/07 05:52:19;;;;;;;6.32;4.30;;;8.20;99.90;;;;;;5052864;28;20063;-38
2021/11/07 05:54:45;;;;;;;8.75;5.18;;;8.20;99.90;;;;;;5052813;28;20021;-37
2021/11/07 05:57:11;;;;;;;4.80;3.65;;;8.20;99.90;;;;;;5052941;28;20361;-37
2021/11/07 05:59:37;;;;;;;5.70;3.75;;;8.20;99.90;;;;;;5051527;28;20025;-38
2021/11/07 06:02:03;;;;;;;6.78;3.58;;;8.20;99.90;;;;;;5052519;28;20023;-38
2021/11/07 06:04:28;;;;;;;6.15;3.88;;;8.20;99.90;;;;;;5052799;28;20391;-38
2021/11/07 06:06:54;;;;;;;8.80;4.10;;;8.20;99.90;;;;;;5052658;28;20024;-38
2021/11/07 06:09:19;;;;;;;6.75;4.80;;;8.20;99.90;;;;;;5052656;28;20447;-38
2021/11/07 06:11:45;;;;;;;4.78;3.80;;;8.20;99.90;;;;;;5052532;28;20033;-38
2021/11/07 06:14:11;;;;;;;8.35;4.93;;;8.30;99.90;;;;;;5051221;28;20376;-38
2021/11/07 06:16:37;;;;;;;11.13;5.20;;;8.30;99.90;;;;;;5052455;28;20029;-38
2021/11/07 06:19:03;;;;;;;5.55;3.88;;;8.30;99.90;;;;;;5052484;28;20063;-38
2021/11/07 06:21:29;;;;;;;7.30;4.18;;;8.30;99.90;;;;;;5052501;28;20025;-38
2021/11/07 06:23:56;;;;;;;7.25;4.38;;;8.30;99.90;;;;;;5052424;28;20017;-38
2021/11/07 06:26:22;;;;;;;5.88;4.05;;;8.30;99.90;;;;;;5052525;28;20025;-38
2021/11/07 06:28:48;;;;;;;6.57;4.07;;;8.40;99.90;;;;;;5050921;28;20040;-39
2021/11/07 06:31:15;;;;;;;6.57;4.30;;;8.40;99.90;;;;;;5052059;28;20025;-37
2021/11/07 06:33:41;;;;;;;5.38;3.85;;;8.40;99.90;;;;;;5052386;28;20487;-38
2021/11/07 06:36:06;;;;;;;6.20;4.38;;;8.40;99.90;;;;;;5052360;28;20030;-37
2021/11/07 06:38:32;;;;;;;5.80;3.95;;;8.40;99.90;;;;;;5052578;28;20017;-37
2021/11/07 06:40:58;;;;;;;6.20;3.80;;;8.50;99.90;;;;;;5056373;28;20512;-40
2021/11/07 06:43:24;;;;;;;7.25;4.20;;;8.50;99.90;;;;;;5055457;28;20104;-38
2021/11/07 06:45:50;;;;;;;5.30;3.95;;;8.50;99.90;;;;;;5056182;28;20475;-38
2021/11/07 06:48:15;;;;;;;6.20;4.15;;;8.50;99.90;;;;;;5056480;28;20036;-40
2021/11/07 06:50:41;;;;;;;5.93;4.10;;;8.50;99.90;;;;;;5056298;28;20357;-42
2021/11/07 06:53:06;;;;;;;6.32;3.88;;;8.50;99.90;;;;;;5056500;28;20510;-42
2021/11/07 06:55:32;;;;;;;4.60;3.40;;;8.50;99.90;;;;;;5056509;28;20104;-40
2021/11/07 06:57:58;;;;;;;5.68;3.70;;;8.50;99.90;;;;;;5054846;28;20017;-38
2021/11/07 07:00:26;;;;;;;7.78;4.03;;;8.60;99.90;;;;;;5056578;28;20052;-38
2021/11/07 07:02:52;;;;;;;5.85;3.42;;;8.60;99.90;;;;;;5075141;28;20020;-38
2021/11/07 07:05:19;;;;;;;4.55;3.35;;;8.60;99.90;;;;;;5062922;28;20045;-38
2021/11/07 07:07:49;;;;;;;6.03;3.90;;;8.60;99.90;;;;;;5052790;28;20111;-40
2021/11/07 07:10:23;;;;;;;5.60;3.63;;;8.70;99.90;;;;;;5071850;28;20040;-38
2021/11/07 07:12:59;;;;;;;5.10;3.10;;;8.70;99.90;;;;;;5070833;28;20295;-38
2021/11/07 07:15:31;;;;;;;6.22;3.38;;;8.70;99.90;;;;;;5074914;28;20029;-37
2021/11/07 07:20:52;;;;;;;5.53;3.33;;;8.70;99.90;;;;;;5073032;28;20486;-38
2021/11/07 07:31:23;;;;;;;5.70;3.63;;;8.70;99.90;;;;;;5057427;28;20043;-38
2021/11/07 07:36:28;;;;;;;5.97;3.42;;;8.80;99.90;;;;;;5052614;28;20091;-38
2021/11/07 07:38:55;;;;;;;5.88;3.85;;;8.70;99.90;;;;;;5052469;28;20021;-38
2021/11/07 07:41:21;;;;;;;7.88;3.80;;;8.80;99.90;;;;;;5052714;28;20464;-38
2021/11/07 07:43:47;;;;;;;6.50;3.88;;;8.80;99.90;;;;;;5051074;28;20060;-38
2021/11/07 07:46:13;;;;;;;4.88;3.97;;;8.80;99.90;;;;;;5052169;28;20094;-40
2021/11/07 07:48:41;;;;;;;5.90;3.92;;;8.80;99.90;;;;;;5067842;28;20033;-38
2021/11/07 07:51:08;;;;;;;6.65;4.80;;;8.80;99.90;;;;;;5051734;28;20036;-37
2021/11/07 07:53:35;;;;;;;5.82;3.38;;;8.80;99.90;;;;;;5052321;28;20017;-38
2021/11/07 07:56:00;;;;;;;5.35;2.97;;;8.80;99.90;;;;;;5052010;28;20537;-37
2021/11/07 07:58:26;;;;;;;7.50;4.10;;;8.80;99.90;;;;;;5050886;28;20036;-38
2021/11/07 08:00:53;;;;;;;6.95;3.80;;;8.90;99.90;;;;;;5051910;28;20029;-40
2021/11/07 08:03:19;;;;;;;5.88;3.97;;;8.90;99.90;;;;;;5052102;28;20044;-40
2021/11/07 08:05:45;;;;;;;5.05;3.60;;;9.00;99.90;;;;;;5052014;28;20036;-38
2021/11/07 08:08:10;;;;;;;6.35;3.53;;;9.00;99.90;;;;;;5051804;28;20032;-38
2021/11/07 08:10:36;;;;;;;6.35;4.00;;;9.00;99.90;;;;;;5052172;28;20029;-38
2021/11/07 08:13:01;;;;;;;6.40;3.67;;;9.00;99.90;;;;;;5050522;28;20467;-38
2021/11/07 08:15:27;;;;;;;5.55;4.20;;;9.00;99.90;;;;;;5051883;28;20068;-38
2021/11/07 08:17:53;;;;;;;6.50;3.38;;;9.10;99.90;;;;;;5052257;28;20536;-44
2021/11/07 08:20:19;;;;;;;4.85;3.83;;;9.10;99.90;;;;;;5072542;28;20044;-39
2021/11/07 08:22:45;;;;;;;8.50;4.00;;;9.10;99.90;;;;;;5070840;28;20029;-38
2021/11/07 08:25:15;;;;;;;4.47;3.55;;;9.20;99.90;;;;;;5072220;28;20016;-39
2021/11/07 08:27:45;;;;;;;5.28;3.75;;;9.30;99.90;;;;;;5071366;28;20482;-38
2021/11/07 08:30:12;;;;;;;9.07;3.90;;;9.30;99.90;;;;;;5072051;28;20024;-39
2021/11/07 08:32:38;;;;;;;9.07;4.32;;;9.40;99.90;;;;;;5036436;28;1030260;-39
2021/11/07 08:35:04;;;;;;;6.75;4.13;;;9.40;99.90;;;;;;5072834;28;20033;-38
2021/11/07 08:40:24;;;;;;;6.25;4.15;;;9.50;99.90;;;;;;5070015;28;20486;-38
2021/11/07 08:43:03;;;;;;;5.93;3.38;;;9.60;99.90;;;;;;5071306;28;20082;-38
2021/11/07 09:07:36;;;;;;;4.57;3.38;;;10.90;99.90;;;;;;5072188;28;20051;-38
2021/11/07 09:10:06;;;;;;;5.97;4.22;;;10.90;99.90;;;;;;5072135;28;20075;-38
2021/11/07 09:12:32;;;;;;;5.50;3.83;;;10.80;99.90;;;;;;5070740;28;20024;-39
2021/11/07 09:14:58;;;;;;;6.13;4.03;;;10.90;99.90;;;;;;5071982;28;20075;-38
2021/11/07 09:17:24;;;;;;;5.22;3.60;;;10.90;99.90;;;;;;5071855;28;20476;-39
2021/11/07 09:19:53;;;;;;;6.53;3.83;;;10.90;99.90;;;;;;5068649;28;20039;-39
2021/11/07 09:22:41;;;;;;;5.75;3.40;;;10.90;99.90;;;;;;5071191;28;20033;-39
2021/11/07 09:25:16;;;;;;;4.60;3.20;;;10.90;99.90;;;;;;5071202;28;20028;-38
2021/11/07 09:27:47;;;;;;;4.78;3.13;;;10.90;99.90;;;;;;5070213;28;20070;-40
2021/11/07 09:30:20;;;;;;;4.03;3.00;;;11.00;99.90;;;;;;5071381;28;20036;-41
2021/11/07 09:32:56;;;;;;;5.32;3.10;;;11.00;99.90;;;;;;5071332;28;20373;-39
2021/11/07 09:40:18;;;;;;;5.03;2.90;;;11.10;99.90;;;;;;5067164;28;20102;-39
2021/11/07 09:45:43;;;;;;;4.80;3.33;;;11.00;99.90;;;;;;5060492;28;20815;-38
2021/11/07 09:48:19;;;;;;;4.38;2.60;;;11.00;99.90;;;;;;5071472;28;20050;-41
2021/11/07 09:50:46;;;;;;;3.17;2.40;;;11.00;99.90;;;;;;5050684;28;20059;-39
2021/11/07 09:53:13;;;;;;;4.20;2.60;;;11.00;99.90;;;;;;5050892;28;20049;-38
2021/11/07 09:55:39;;;;;;;5.32;2.72;;;11.00;99.90;;;;;;5051227;28;20033;-39
2021/11/07 09:58:05;;;;;;;3.92;2.90;;;11.00;99.90;;;;;;5050329;28;20104;-38
2021/11/07 10:00:39;;;;;;;3.40;2.45;;;10.90;99.90;;;;;;5051105;28;20101;-38
2021/11/07 10:03:05;;;;;;;5.60;2.47;;;10.90;99.90;;;;;;5070410;28;20012;-38
2021/11/07 10:05:39;;;;;;;4.20;2.53;;;10.90;99.90;;;;;;5070929;28;20027;-38
2021/11/07 10:08:07;;;;;;;3.88;2.80;;;11.00;99.90;;;;;;5070228;28;20566;-38
2021/11/07 10:10:37;;;;;;;3.95;2.30;;;11.00;99.90;;;;;;5071095;28;20031;-38
2021/11/07 10:13:08;;;;;;;5.03;2.58;;;11.00;99.90;;;;;;5069894;28;20025;-38
2021/11/07 10:15:43;;;;;;;4.60;2.95;;;11.00;99.90;;;;;;5070869;28;20476;-39
2021/11/07 10:18:14;;;;;;;4.70;2.30;;;11.00;99.90;;;;;;5071112;28;20032;-38
2021/11/07 10:20:48;;;;;;;4.63;2.20;;;11.10;99.90;;;;;;5070423;28;20047;-39
2021/11/07 10:23:35;;;;;;;3.30;2.17;;;11.10;99.90;;;;;;5053464;28;20040;-38
2021/11/07 10:26:28;;;;;;;3.17;2.45;;;11.10;99.90;;;;;;5050213;28;20431;-40
2021/11/07 10:29:00;;;;;;;4.20;2.35;;;11.10;99.90;;;;;;5049231;28;20035;-39
2021/11/07 10:31:59;;;;;;;3.75;2.53;;;11.20;99.90;;;;;;5054141;28;20404;-41
2021/11/07 10:37:34;;;;;;;3.05;1.90;;;11.60;99.90;;;;;;5070839;28;20032;-39
2021/11/07 10:40:20;;;;;;;4.75;2.67;;;11.80;99.90;;;;;;5050737;28;20025;-38
2021/11/07 10:53:57;;;;;;;3.55;1.83;;;11.90;99.90;;;;;;5060652;28;20036;-38
2021/11/07 10:56:24;;;;;;;3.40;2.00;;;11.80;99.90;;;;;;5050680;28;20033;-39
2021/11/07 10:58:50;;;;;;;4.22;1.95;;;11.80;99.90;;;;;;5049896;28;20086;-37
2021/11/07 11:01:23;;;;;;;5.28;2.35;;;11.80;99.90;;;;;;5052595;28;20443;-37
2021/11/07 11:03:53;;;;;;;4.30;1.67;;;11.80;99.90;;;;;;5069929;28;20028;-38
2021/11/07 11:06:19;;;;;;;2.28;1.42;;;11.70;99.90;;;;;;5070440;28;20032;-38
2021/11/07 11:11:42;;;;;;;5.47;1.83;;;11.70;99.90;;;;;;5070358;28;20081;-38
2021/11/07 11:14:21;;;;;;;5.75;1.85;;;11.60;99.90;;;;;;5071474;28;20375;-38
2021/11/07 11:20:02;;;;;;;6.72;2.15;;;11.40;99.90;;;;;;5090829;28;20109;-38
2021/11/07 11:35:33;;;;;;;2.72;2.35;;;11.00;99.90;;;;;;5094241;28;20054;-38
2021/11/07 11:40:35;;;;;;;10.15;2.72;;;10.90;99.90;;;;;;5088046;28;20020;-38
2021/11/07 11:43:24;;;;;;;3.00;2.05;;;10.90;99.90;;;;;;5063552;28;20029;-38
2021/11/07 11:45:58;;;;;;;4.05;2.50;;;10.90;99.90;;;;;;5072082;28;20150;-38
2021/11/07 11:48:58;;;;;;;5.32;2.47;;;10.80;99.90;;;;;;5071647;28;20044;-39
2021/11/07 11:56:50;;;;;;;4.55;1.70;;;10.60;99.90;;;;;;5071472;28;20070;-38
2021/11/07 11:59:49;;;;;;;3.92;1.38;;;10.60;99.90;;;;;;5070766;28;20363;-39
2021/11/07 12:02:27;;;;;;;5.15;1.35;;;10.50;99.90;;;;;;5071777;28;20051;-37
2021/11/07 12:05:02;;;;;;;3.03;1.30;;;10.50;99.90;;;;;;5071683;28;20525;-38
2021/11/07 12:07:35;;;;;;;2.57;0.90;;;10.40;99.90;;;;;;5071716;28;20080;-38
2021/11/07 12:10:06;;;;;;;2.47;1.20;;;10.40;99.90;;;;;;5071812;28;20124;-38
2021/11/07 12:12:47;;;;;;;1.77;0.90;;;10.40;99.90;;;;;;5070164;28;20024;-39
2021/11/07 12:17:41;;;;;;;4.63;1.45;;;10.50;99.90;;;;;;5071381;28;20328;-38
2021/11/07 12:20:25;;;;;;;3.95;1.15;;;10.40;99.90;;;;;;5071109;28;20104;-38
2021/11/07 12:23:21;;;;;;;3.75;1.00;;;10.40;99.90;;;;;;5071504;28;20020;-38
2021/11/07 12:25:48;;;;;;;2.92;0.80;;;10.40;99.90;;;;;;5071182;28;20052;-38
2021/11/07 12:28:15;;;;;;;4.15;1.23;;;10.40;99.90;;;;;;5070049;28;20024;-38
2021/11/07 12:30:41;;;;;;;2.38;1.00;;;10.40;99.90;;;;;;5071020;28;20059;-38
2021/11/07 12:33:16;;;;;;;3.13;1.65;;;10.30;99.90;;;;;;5071049;28;20044;-38
2021/11/07 12:35:45;;;;;;;4.68;1.27;;;10.20;99.90;;;;;;5070979;28;20027;-39
2021/11/07 12:41:05;;;;;;;2.65;1.38;;;10.20;99.90;;;;;;5071136;28;20039;-38
2021/11/07 12:43:32;;;;;;;4.13;1.63;;;10.20;99.90;;;;;;5069707;28;20025;-38
2021/11/07 12:46:18;;;;;;;5.82;1.65;;;10.20;99.90;;;;;;5071003;28;20032;-38
2021/11/07 12:48:45;;;;;;;;;;;10.10;99.90;;;;;;5071262;28;20027;-38
2021/11/07 12:51:17;;;;;;;3.70;1.42;;;10.20;99.90;;;;;;5070990;28;19909;-38
2021/11/07 12:53:57;;;;;;;1.83;1.05;;;10.10;99.90;;;;;;5070728;28;20227;-39
2021/11/07 12:56:35;;;;;;;13.23;1.70;;;10.10;99.90;;;;;;5070693;28;20435;-39
2021/11/07 12:59:05;;;;;;;4.90;1.50;;;10.00;99.90;;;;;;5069469;28;20035;-38
2021/11/07 13:01:30;;;;;;;2.30;1.10;;;10.10;99.90;;;;;;5070410;28;20021;-38
2021/11/07 13:04:01;;;;;;;3.67;1.50;;;10.00;99.90;;;;;;5070608;28;20161;-38
2021/11/07 13:06:34;;;;;;;4.20;1.77;;;10.10;99.90;;;;;;5070286;28;20028;-38
2021/11/07 13:09:02;;;;;;;2.85;1.65;;;10.20;99.90;;;;;;5070734;28;20028;-38
2021/11/07 13:11:37;;;;;;;4.50;1.90;;;10.20;99.90;;;;;;5070346;28;20031;-39
2021/11/07 13:14:13;;;;;;;4.65;2.10;;;10.30;99.90;;;;;;5069117;28;20016;-40
2021/11/07 13:24:45;;;;;;;6.15;2.20;;;10.40;99.90;;;;;;5070132;28;20025;-39
2021/11/07 13:27:18;;;;;;;4.10;1.70;;;10.40;99.90;;;;;;5070224;28;20033;-38
2021/11/07 13:29:51;;;;;;;2.88;1.45;;;10.30;99.90;;;;;;5068949;28;20037;-39
2021/11/07 13:34:59;;;;;;;3.97;1.80;;;10.20;99.90;;;;;;5070009;28;20104;-38
2021/11/07 13:37:29;;;;;;;5.15;2.00;;;10.20;99.90;;;;;;5069832;28;20024;-38
2021/11/07 13:40:06;;;;;;;6.03;1.90;;;10.10;99.90;;;;;;5069990;28;20522;-38
2021/11/07 13:42:37;;;;;;;6.90;2.58;;;10.10;99.90;;;;;;5068629;28;20031;-40
2021/11/07 13:45:06;;;;;;;2.95;2.03;;;10.00;99.90;;;;;;5069704;28;20039;-40
2021/11/07 13:47:35;;;;;;;4.53;1.95;;;10.00;99.90;;;;;;5069653;28;20074;-38
2021/11/07 13:50:04;;;;;;;3.03;1.52;;;10.00;99.90;;;;;;5069904;28;20024;-37
2021/11/07 13:52:33;;;;;;;6.53;1.95;;;10.10;99.90;;;;;;5069891;28;20078;-39
2021/11/07 13:55:00;;;;;;;5.15;1.67;;;10.10;99.90;;;;;;5069956;28;20089;-39
2021/11/07 13:57:27;;;;;;;5.18;1.80;;;10.10;99.90;;;;;;5068406;28;20475;-39
2021/11/07 13:59:53;;;;;;;2.42;1.33;;;10.10;99.90;;;;;;5069560;28;20074;-38
2021/11/07 14:02:21;;;;;;;5.38;1.88;;;10.00;99.90;;;;;;5069738;28;20515;-38
2021/11/07 14:04:53;;;;;;;5.55;1.60;;;10.00;99.90;;;;;;5069405;28;20024;-37
2021/11/07 14:07:28;;;;;;;5.68;1.52;;;9.90;99.90;;;;;;5069699;28;20028;-39
2021/11/07 14:10:15;;;;;;;8.63;2.22;;;9.90;99.90;;;;;;5069492;28;20037;-37
2021/11/07 14:12:57;;;;;;;4.15;1.63;;;9.80;99.90;;;;;;5068090;28;20029;-40
2021/11/07 14:15:30;;;;;;;9.27;1.92;;;9.80;99.90;;;;;;5057955;28;20388;-38
2021/11/07 14:18:18;;;;;;;4.97;1.73;;;9.70;99.90;;;;;;5049867;28;20379;-38
2021/11/07 14:20:51;;;;;;;7.15;1.70;;;9.60;99.90;;;;;;5068671;28;20023;-39
2021/11/07 14:23:37;;;;;;;4.07;2.15;;;9.60;99.90;;;;;;5069335;28;20020;-38
2021/11/07 14:26:07;;;;;;;7.88;1.40;;;9.70;99.90;;;;;;5069359;28;20028;-38
2021/11/07 14:28:47;;;;;;;5.45;1.42;;;9.70;99.90;;;;;;5068468;28;20035;-40
2021/11/07 14:31:20;;;;;;;6.65;1.67;;;9.70;99.90;;;;;;5069333;28;20028;-38
2021/11/07 14:33:50;;;;;;;10.68;1.45;;;9.70;99.90;;;;;;5068924;28;20051;-38
2021/11/07 14:36:26;;;;;;;13.88;3.90;;;9.80;99.90;;;;;;5069275;28;20028;-38
2021/11/07 14:39:08;;;;;;;12.10;4.45;;;9.70;99.90;;;;;;5069021;28;20107;-37
2021/11/07 14:41:42;;;;;;;15.43;5.65;;;9.70;99.90;;;;;;5068925;28;20035;-37
2021/11/07 14:44:25;;;;;;;12.73;4.65;;;9.70;99.90;;;;;;5068135;28;20048;-37
2021/11/07 14:47:10;;;;;;;9.32;3.15;;;9.70;99.90;;;;;;5069913;28;20051;-40
2021/11/07 14:49:55;;;;;;;9.20;2.65;;;9.60;99.90;;;;;;5070321;28;20492;-38
2021/11/07 14:52:49;;;;;;;5.03;2.13;;;9.50;99.90;;;;;;5070474;28;20029;-38
2021/11/07 14:55:26;;;;;;;5.65;1.35;;;9.40;99.90;;;;;;5065234;28;20567;-40
2021/11/07 14:58:47;;;;;;;3.65;1.13;;;9.30;99.90;;;;;;5067879;28;20023;-38
2021/11/07 15:01:29;;;;;;;6.20;1.65;;;9.10;99.90;;;;;;5055083;28;20036;-37